Vliegveldwaarnemingen Nederland - (AUTO) METAR

Luchtvaartmeteorologische informatie voor operationeel gebruik en vluchtvoorbereiding is beschikbaar op www.luchtvaartmeteo.nl.

ZCZC
SA130355 EHKD     DE KOOY/DE KOOY   NLD   1 m.
METAR EHKD 130355Z AUTO 30007KT 270V330 9999 FEW021 04/00 Q1030 BLU=

ZCZC
SA130355 EHFD     F3-FB-1   NLD   50 m.
METAR EHFD 130355Z AUTO /////KT 9999 FEW019/// 05/00 Q1026=

ZCZC
SA130355 EHAM     AMSTERDAM/SCHIPHOL   NLD   -3 m.
METAR EHAM 130355Z 26005KT 9999 FEW028 02/M01 Q1031 NOSIG=

ZCZC
SA130355 EHVL     VLIELAND   NLD   10 m.
METAR EHVL 130355Z AUTO 30018KT 9999 FEW022 SCT027 05/01 Q1030 BLU=

ZCZC
SA130355 EHJR     K13-A   NLD   37 m.
METAR EHJR 130355Z AUTO ///15KT //// // ///////// 05/00 Q1031 RE//
W06/H16=

ZCZC
SA130355 EHLE     LELYSTAD/LELYSTAD   NLD   -3 m.
METAR EHLE 130355Z AUTO 25005KT 9999 NCD M00/M01 Q1030=

ZCZC
SA130355 EHLW     LEEUWARDEN/LEEUWARDEN   NLD   1 m.
METAR EHLW 130355Z AUTO 29007KT 9999 FEW025 SCT037 BKN042 03/01 Q1029
 BLU=

ZCZC
SA130355 EHDL     ARNHEM/DEELEN   NLD   48 m.
METAR EHDL 130355Z AUTO 19001KT 9999 BKN025 BKN029 M02/M03 Q1030 BLU=

ZCZC
SA130355 EHGG     GRONINGEN/EELDE   NLD   5 m.
METAR EHGG 130355Z AUTO 26008KT 230V290 9999 FEW022 BKN026 BKN030
02/00 Q1029=

ZCZC
SA130355 EHSC     LICHTEILAND GOEREE   NLD   22 m.
METAR EHSC 130355Z AUTO 30010KT 9999 ///////// 05/00 Q1031 W07/H10=

ZCZC
SA130355 EHSA     EURO PLATFORM   NLD   19 m.
METAR EHSA 130355Z AUTO 27012KT 9999 ///////// 05/00 Q1032 W08/H10=

ZCZC
SA130355 EHWO     WOENSDRECHT/WOENSDRECHT   NLD   19 m.
METAR EHWO 130355Z AUTO 19001KT 9999 NCD M03/M04 Q1031 BLU=

ZCZC
SA130355 EHRD     ROTTERDAM/THE HAGUE AIRPORT   NLD   -5 m.
METAR EHRD 130355Z AUTO 26004KT 9999 FEW032 M01/M03 Q1031 NOSIG=

ZCZC
SA130355 EHGR     GILZE-RIJEN/GILZE-RIJEN   NLD   14 m.
METAR EHGR 130355Z AUTO 26003KT 9999 NCD M02/M03 Q1031 BLU=

ZCZC
SA130355 EHEH     EINDHOVEN/EINDHOVEN   NLD   22 m.
METAR EHEH 130355Z AUTO 26004KT 9999 NCD M03/M03 Q1031 BLU=

ZCZC
SA130355 EHVK     VOLKEL/VOLKEL   NLD   21 m.
METAR EHVK 130355Z AUTO 25004KT 9999 NCD M02/M03 Q1031 BLU=

ZCZC
SA130355 EHBK     MAASTRICHT/MAASTRICHT-AACHEN   NLD   114 m.
METAR EHBK 130355Z AUTO 21005KT 5000 NCD M01/M02 Q1031=

ZCZC
SA130355 EHFZ     F16-A   NLD   43 m.
METAR EHFZ 130355Z NIL=

ZCZC
SA130355 EHKV     K14-FA-1C   NLD   41 m.
METAR EHKV 130355Z AUTO VRB16KT 9999 FEW023 06/M00 Q1030=

ZCZC
SA130355 EHMG     L9-FF-1   NLD   44 m.
METAR EHMG 130355Z AUTO 30023KT 9999 FEW021 SCT029 06/M00 Q1030=

ZCZC
SA130355 EHMA     AWG-1   NLD   40 m.
METAR EHMA 130355Z AUTO 29024KT 9999 FEW020 SCT026 06/01 Q1028=

ZCZC
SA130355 EHDV     D15-FA-1   NLD   42 m.
METAR EHDV 130355Z AUTO 30018KT 9999 SCT021/// SCT026/// 06/00 Q1030=

ZCZC
SA130355 EHAK     A12-CPP   NLD   48 m.
METAR EHAK 130355Z AUTO 32023KT 9999 FEW045/// 05/00 Q1027=

ZCZC
SA130355 EHQE     HOORN-A   NLD   50 m.
METAR EHQE 130355Z AUTO 27018KT 9999 NCD 05/M01 Q1030=

ZCZC
SA130355 EHJA     J6-A   NLD   45 m.
METAR EHJA 130355Z AUTO 29019KT 9999 FEW023/// SCT026/// 06/00 Q1029=

ZCZC
SA130355 EHPG     P11-B   NLD   41 m.
METAR EHPG 130355Z AUTO VRB10KT 9999 NCD 06/M01 Q1031=

ZCZC
SA130355 EHHW     BUITENGAATS/BG-OHVS2      42 m.
METAR EHHW 130355Z AUTO 32019KT 9999 FEW019/// SCT022/// BKN032///
05/01 Q1027=

ZCZC
SA130355 EHFS     VLISSINGEN AWS   NLD   8 m.
METAR EHFS 130355Z AUTO 30004KT 270V330 9999 NCD 03/M00 Q1032=

ZCZC
SA130355 EHSG     BSA   NLD   43 m.
METAR EHSG 130355Z AUTO 30007KT //// // NCD 06/M00 Q1032 RE//=

13/04/2021 06.15 uur LT